Terminal Aerodrome Forecast
Issued by NWS Cleveland, OH

Home | Current Version | Previous Version | Text Only | Print | Product List | Glossary Off
Versions: 1 2 3 4 5 6 7 8 9 10 11 12 13 14 15 16 17 18 19 20 21 22 23 24

958
FTUS41 KCLE 241942 AAA
TAFMFD
TAF AMD
KMFD 241942Z 2420/2518 09010KT P6SM -SHRA SCT008 OVC015
      TEMPO 2420/2424 3SM -RA BR OVC008
     FM250000 09010KT 4SM -SHRA BR OVC008
     FM250300 12008KT 3SM -SHRA OVC004
     FM250600 14007KT 4SM BR VCSH OVC004
     FM251400 18007KT 6SM BR VCSH OVC008=

USA.gov is the U.S. government's official web portal to all federal, state and local government web resources and services.